sensor_id;sensor_type;location;lat;lon;timestamp;P1;durP1;ratioP1;P2;durP2;ratioP2
13485;SDS011;6815;59.336;17.998;2023-01-08T12:42:13;55.83;;;26.07;;
13485;SDS011;6815;59.336;17.998;2023-01-08T12:44:48;56.50;;;25.37;;
13485;SDS011;6815;59.336;17.998;2023-01-08T12:47:17;58.83;;;28.00;;
13485;SDS011;6815;59.336;17.998;2023-01-08T12:49:48;57.93;;;27.23;;
13485;SDS011;6815;59.336;17.998;2023-01-08T12:52:27;58.00;;;27.00;;
13485;SDS011;6815;59.336;17.998;2023-01-08T12:55:05;60.50;;;26.00;;
13485;SDS011;6815;59.336;17.998;2023-01-08T12:57:58;62.70;;;27.17;;
13485;SDS011;6815;59.336;17.998;2023-01-08T13:00:32;56.77;;;26.97;;
13485;SDS011;6815;59.336;17.998;2023-01-08T13:03:04;56.30;;;25.97;;
13485;SDS011;6815;59.336;17.998;2023-01-08T13:05:36;54.00;;;24.90;;
13485;SDS011;6815;59.336;17.998;2023-01-08T13:08:03;57.43;;;24.97;;
13485;SDS011;6815;59.336;17.998;2023-01-08T13:13:01;54.50;;;26.67;;
13485;SDS011;6815;59.336;17.998;2023-01-08T13:15:28;58.23;;;26.37;;
13485;SDS011;6815;59.336;17.998;2023-01-08T13:20:56;54.40;;;25.60;;
13485;SDS011;6815;59.336;17.998;2023-01-08T13:23:31;54.87;;;26.27;;
13485;SDS011;6815;59.336;17.998;2023-01-08T13:25:59;58.33;;;25.57;;
13485;SDS011;6815;59.336;17.998;2023-01-08T13:33:52;63.80;;;28.07;;
13485;SDS011;6815;59.336;17.998;2023-01-08T13:36:21;59.57;;;28.20;;
13485;SDS011;6815;59.336;17.998;2023-01-08T13:39:19;63.07;;;27.97;;
13485;SDS011;6815;59.336;17.998;2023-01-08T13:42:13;60.80;;;27.10;;
13485;SDS011;6815;59.336;17.998;2023-01-08T13:44:56;59.83;;;27.43;;
13485;SDS011;6815;59.336;17.998;2023-01-08T13:47:29;62.67;;;28.03;;
13485;SDS011;6815;59.336;17.998;2023-01-08T13:50:04;57.67;;;28.00;;
13485;SDS011;6815;59.336;17.998;2023-01-08T13:53:00;59.43;;;27.27;;
13485;SDS011;6815;59.336;17.998;2023-01-08T13:55:29;62.30;;;27.17;;
13485;SDS011;6815;59.336;17.998;2023-01-08T13:58:06;58.73;;;26.67;;
13485;SDS011;6815;59.336;17.998;2023-01-08T14:00:45;57.73;;;27.67;;
13485;SDS011;6815;59.336;17.998;2023-01-08T14:03:22;60.90;;;27.13;;
13485;SDS011;6815;59.336;17.998;2023-01-08T14:05:50;61.93;;;28.33;;
13485;SDS011;6815;59.336;17.998;2023-01-08T14:08:23;57.97;;;28.00;;
13485;SDS011;6815;59.336;17.998;2023-01-08T14:10:50;65.47;;;29.30;;
13485;SDS011;6815;59.336;17.998;2023-01-08T14:13:16;62.47;;;28.43;;
13485;SDS011;6815;59.336;17.998;2023-01-08T14:15:47;66.50;;;28.83;;
13485;SDS011;6815;59.336;17.998;2023-01-08T14:18:13;63.90;;;29.33;;
13485;SDS011;6815;59.336;17.998;2023-01-08T14:20:39;61.17;;;27.97;;
13485;SDS011;6815;59.336;17.998;2023-01-08T14:23:12;57.57;;;27.90;;
13485;SDS011;6815;59.336;17.998;2023-01-08T14:25:47;59.67;;;28.90;;
13485;SDS011;6815;59.336;17.998;2023-01-08T14:28:18;60.57;;;27.43;;
13485;SDS011;6815;59.336;17.998;2023-01-08T14:33:14;55.23;;;27.03;;
13485;SDS011;6815;59.336;17.998;2023-01-08T14:35:43;53.70;;;27.07;;
13485;SDS011;6815;59.336;17.998;2023-01-08T14:38:11;56.97;;;26.23;;
13485;SDS011;6815;59.336;17.998;2023-01-08T14:40:40;53.40;;;25.63;;
13485;SDS011;6815;59.336;17.998;2023-01-08T14:43:09;52.83;;;24.97;;
13485;SDS011;6815;59.336;17.998;2023-01-08T14:45:37;57.70;;;27.00;;
13485;SDS011;6815;59.336;17.998;2023-01-08T14:48:20;52.57;;;26.07;;
13485;SDS011;6815;59.336;17.998;2023-01-08T14:51:00;55.30;;;27.70;;
13485;SDS011;6815;59.336;17.998;2023-01-08T14:53:30;48.33;;;24.43;;
13485;SDS011;6815;59.336;17.998;2023-01-08T14:55:59;52.80;;;25.73;;
13485;SDS011;6815;59.336;17.998;2023-01-08T14:58:27;50.30;;;24.17;;
13485;SDS011;6815;59.336;17.998;2023-01-08T15:01:00;50.23;;;24.77;;
13485;SDS011;6815;59.336;17.998;2023-01-08T15:03:33;50.30;;;23.83;;
13485;SDS011;6815;59.336;17.998;2023-01-08T15:06:01;48.37;;;24.00;;
13485;SDS011;6815;59.336;17.998;2023-01-08T15:08:32;47.70;;;24.27;;
13485;SDS011;6815;59.336;17.998;2023-01-08T15:13:43;47.80;;;23.80;;
13485;SDS011;6815;59.336;17.998;2023-01-08T15:16:11;52.07;;;24.17;;
13485;SDS011;6815;59.336;17.998;2023-01-08T15:18:49;50.27;;;23.63;;
13485;SDS011;6815;59.336;17.998;2023-01-08T15:21:24;46.33;;;22.43;;
13485;SDS011;6815;59.336;17.998;2023-01-08T15:23:50;44.80;;;22.97;;
13485;SDS011;6815;59.336;17.998;2023-01-08T15:26:22;44.50;;;23.40;;
13485;SDS011;6815;59.336;17.998;2023-01-08T15:28:53;46.37;;;22.03;;
13485;SDS011;6815;59.336;17.998;2023-01-08T15:31:30;43.77;;;22.67;;
13485;SDS011;6815;59.336;17.998;2023-01-08T15:33:57;43.37;;;23.47;;
13485;SDS011;6815;59.336;17.998;2023-01-08T15:36:24;45.63;;;21.33;;
13485;SDS011;6815;59.336;17.998;2023-01-08T15:38:50;39.73;;;20.33;;
13485;SDS011;6815;59.336;17.998;2023-01-08T15:41:20;43.17;;;21.00;;
13485;SDS011;6815;59.336;17.998;2023-01-08T15:44:07;39.97;;;21.30;;
13485;SDS011;6815;59.336;17.998;2023-01-08T15:46:35;37.93;;;20.03;;
13485;SDS011;6815;59.336;17.998;2023-01-08T15:49:00;40.73;;;21.30;;
13485;SDS011;6815;59.336;17.998;2023-01-08T15:51:26;34.37;;;19.40;;
13485;SDS011;6815;59.336;17.998;2023-01-08T15:53:56;36.10;;;20.17;;
13485;SDS011;6815;59.336;17.998;2023-01-08T15:56:22;34.97;;;19.83;;
13485;SDS011;6815;59.336;17.998;2023-01-08T15:58:47;37.03;;;19.17;;
13485;SDS011;6815;59.336;17.998;2023-01-08T16:01:13;36.80;;;19.67;;
13485;SDS011;6815;59.336;17.998;2023-01-08T16:03:38;34.47;;;18.73;;
13485;SDS011;6815;59.336;17.998;2023-01-08T16:06:04;33.90;;;17.90;;
13485;SDS011;6815;59.336;17.998;2023-01-08T16:08:30;29.33;;;16.50;;
13485;SDS011;6815;59.336;17.998;2023-01-08T16:10:56;30.73;;;15.93;;
13485;SDS011;6815;59.336;17.998;2023-01-08T16:13:21;27.87;;;15.63;;
13485;SDS011;6815;59.336;17.998;2023-01-08T16:15:47;25.90;;;14.80;;
13485;SDS011;6815;59.336;17.998;2023-01-08T16:18:13;27.33;;;15.57;;
13485;SDS011;6815;59.336;17.998;2023-01-08T16:20:38;23.10;;;13.87;;
13485;SDS011;6815;59.336;17.998;2023-01-08T16:23:05;26.03;;;15.63;;
13485;SDS011;6815;59.336;17.998;2023-01-08T16:25:30;24.73;;;14.13;;
13485;SDS011;6815;59.336;17.998;2023-01-08T16:27:56;25.73;;;15.57;;
13485;SDS011;6815;59.336;17.998;2023-01-08T16:30:22;27.13;;;15.57;;
13485;SDS011;6815;59.336;17.998;2023-01-08T16:32:51;26.23;;;15.43;;
13485;SDS011;6815;59.336;17.998;2023-01-08T16:35:18;27.03;;;14.27;;
13485;SDS011;6815;59.336;17.998;2023-01-08T16:37:45;25.47;;;15.20;;
13485;SDS011;6815;59.336;17.998;2023-01-08T16:40:13;24.60;;;14.80;;
13485;SDS011;6815;59.336;17.998;2023-01-08T16:42:39;23.20;;;15.37;;
13485;SDS011;6815;59.336;17.998;2023-01-08T16:45:06;26.57;;;16.17;;
13485;SDS011;6815;59.336;17.998;2023-01-08T16:47:35;25.10;;;15.17;;
13485;SDS011;6815;59.336;17.998;2023-01-08T16:50:03;28.63;;;16.13;;
13485;SDS011;6815;59.336;17.998;2023-01-08T16:52:29;35.43;;;18.40;;
13485;SDS011;6815;59.336;17.998;2023-01-08T16:54:55;30.37;;;17.20;;
13485;SDS011;6815;59.336;17.998;2023-01-08T16:57:22;32.30;;;17.07;;
13485;SDS011;6815;59.336;17.998;2023-01-08T16:59:47;32.80;;;17.07;;
13485;SDS011;6815;59.336;17.998;2023-01-08T17:02:12;33.70;;;17.57;;
13485;SDS011;6815;59.336;17.998;2023-01-08T17:04:38;37.07;;;19.37;;
13485;SDS011;6815;59.336;17.998;2023-01-08T17:07:04;37.67;;;20.03;;
13485;SDS011;6815;59.336;17.998;2023-01-08T17:09:30;42.30;;;20.83;;
13485;SDS011;6815;59.336;17.998;2023-01-08T17:11:56;38.47;;;21.63;;
13485;SDS011;6815;59.336;17.998;2023-01-08T17:14:22;44.27;;;21.77;;
13485;SDS011;6815;59.336;17.998;2023-01-08T17:16:47;45.43;;;22.73;;
13485;SDS011;6815;59.336;17.998;2023-01-08T17:19:13;40.10;;;21.03;;
13485;SDS011;6815;59.336;17.998;2023-01-08T17:21:39;39.33;;;20.97;;
13485;SDS011;6815;59.336;17.998;2023-01-08T17:24:05;46.87;;;21.57;;
13485;SDS011;6815;59.336;17.998;2023-01-08T17:26:31;37.10;;;19.83;;
13485;SDS011;6815;59.336;17.998;2023-01-08T17:28:57;43.20;;;18.67;;
13485;SDS011;6815;59.336;17.998;2023-01-08T17:31:23;38.63;;;18.00;;
13485;SDS011;6815;59.336;17.998;2023-01-08T17:33:48;33.37;;;17.27;;
13485;SDS011;6815;59.336;17.998;2023-01-08T17:36:20;33.77;;;16.93;;
13485;SDS011;6815;59.336;17.998;2023-01-08T17:38:48;32.47;;;17.37;;
13485;SDS011;6815;59.336;17.998;2023-01-08T17:41:15;32.23;;;16.80;;
13485;SDS011;6815;59.336;17.998;2023-01-08T17:43:59;28.40;;;15.53;;
13485;SDS011;6815;59.336;17.998;2023-01-08T17:46:25;27.30;;;15.07;;
13485;SDS011;6815;59.336;17.998;2023-01-08T17:48:51;26.47;;;14.73;;
13485;SDS011;6815;59.336;17.998;2023-01-08T17:51:17;25.53;;;14.27;;
13485;SDS011;6815;59.336;17.998;2023-01-08T17:53:42;29.47;;;15.13;;
13485;SDS011;6815;59.336;17.998;2023-01-08T17:56:08;25.67;;;13.73;;
13485;SDS011;6815;59.336;17.998;2023-01-08T17:58:33;21.77;;;12.73;;
13485;SDS011;6815;59.336;17.998;2023-01-08T18:00:58;22.23;;;13.27;;
13485;SDS011;6815;59.336;17.998;2023-01-08T18:03:25;22.30;;;12.63;;
13485;SDS011;6815;59.336;17.998;2023-01-08T18:05:50;20.90;;;12.47;;
13485;SDS011;6815;59.336;17.998;2023-01-08T18:08:16;21.13;;;11.63;;
13485;SDS011;6815;59.336;17.998;2023-01-08T18:10:41;20.53;;;11.00;;
13485;SDS011;6815;59.336;17.998;2023-01-08T18:13:07;17.20;;;9.93;;
13485;SDS011;6815;59.336;17.998;2023-01-08T18:15:32;17.80;;;10.57;;
13485;SDS011;6815;59.336;17.998;2023-01-08T18:17:59;21.00;;;11.27;;
13485;SDS011;6815;59.336;17.998;2023-01-08T18:20:25;19.33;;;10.83;;
13485;SDS011;6815;59.336;17.998;2023-01-08T18:22:52;17.83;;;10.97;;
13485;SDS011;6815;59.336;17.998;2023-01-08T18:25:18;17.97;;;11.30;;
13485;SDS011;6815;59.336;17.998;2023-01-08T18:27:44;19.30;;;10.60;;
13485;SDS011;6815;59.336;17.998;2023-01-08T18:30:10;19.47;;;11.30;;
13485;SDS011;6815;59.336;17.998;2023-01-08T18:32:36;18.60;;;10.47;;
13485;SDS011;6815;59.336;17.998;2023-01-08T18:35:02;18.37;;;10.53;;
13485;SDS011;6815;59.336;17.998;2023-01-08T18:37:31;17.63;;;10.30;;
13485;SDS011;6815;59.336;17.998;2023-01-08T18:39:56;16.83;;;10.33;;
13485;SDS011;6815;59.336;17.998;2023-01-08T18:42:22;17.17;;;10.40;;
13485;SDS011;6815;59.336;17.998;2023-01-08T18:44:54;15.57;;;9.93;;
13485;SDS011;6815;59.336;17.998;2023-01-08T18:47:21;19.23;;;10.27;;
13485;SDS011;6815;59.336;17.998;2023-01-08T18:49:50;14.27;;;8.73;;
13485;SDS011;6815;59.336;17.998;2023-01-08T18:52:17;17.33;;;10.47;;
13485;SDS011;6815;59.336;17.998;2023-01-08T18:54:43;18.50;;;10.17;;
13485;SDS011;6815;59.336;17.998;2023-01-08T18:57:08;15.37;;;9.73;;
13485;SDS011;6815;59.336;17.998;2023-01-08T18:59:35;15.57;;;9.37;;
13485;SDS011;6815;59.336;17.998;2023-01-08T19:02:00;15.17;;;9.77;;
13485;SDS011;6815;59.336;17.998;2023-01-08T19:04:26;16.50;;;9.83;;
13485;SDS011;6815;59.336;17.998;2023-01-08T19:06:51;14.30;;;9.00;;
13485;SDS011;6815;59.336;17.998;2023-01-08T19:09:18;18.47;;;10.33;;
13485;SDS011;6815;59.336;17.998;2023-01-08T19:11:43;15.97;;;9.43;;
13485;SDS011;6815;59.336;17.998;2023-01-08T19:14:10;17.73;;;9.93;;
13485;SDS011;6815;59.336;17.998;2023-01-08T19:16:37;17.13;;;9.37;;
13485;SDS011;6815;59.336;17.998;2023-01-08T19:19:02;16.17;;;9.70;;
13485;SDS011;6815;59.336;17.998;2023-01-08T19:21:28;16.60;;;9.30;;
13485;SDS011;6815;59.336;17.998;2023-01-08T19:23:54;16.77;;;9.30;;
13485;SDS011;6815;59.336;17.998;2023-01-08T19:26:19;16.50;;;9.60;;
13485;SDS011;6815;59.336;17.998;2023-01-08T19:28:45;14.97;;;8.97;;
13485;SDS011;6815;59.336;17.998;2023-01-08T19:31:11;14.73;;;9.20;;
13485;SDS011;6815;59.336;17.998;2023-01-08T19:33:39;15.77;;;9.13;;
13485;SDS011;6815;59.336;17.998;2023-01-08T19:36:04;17.10;;;9.63;;
13485;SDS011;6815;59.336;17.998;2023-01-08T19:38:35;13.60;;;8.60;;
13485;SDS011;6815;59.336;17.998;2023-01-08T19:41:01;14.93;;;9.07;;
13485;SDS011;6815;59.336;17.998;2023-01-08T19:43:27;15.60;;;8.77;;
13485;SDS011;6815;59.336;17.998;2023-01-08T19:46:08;13.83;;;8.03;;
13485;SDS011;6815;59.336;17.998;2023-01-08T19:48:39;14.90;;;8.63;;
13485;SDS011;6815;59.336;17.998;2023-01-08T19:51:08;14.47;;;8.80;;
13485;SDS011;6815;59.336;17.998;2023-01-08T19:53:35;12.60;;;8.40;;
13485;SDS011;6815;59.336;17.998;2023-01-08T19:56:01;13.20;;;7.80;;
13485;SDS011;6815;59.336;17.998;2023-01-08T19:58:28;14.07;;;8.50;;
13485;SDS011;6815;59.336;17.998;2023-01-08T20:00:53;11.47;;;7.00;;
13485;SDS011;6815;59.336;17.998;2023-01-08T20:03:19;11.17;;;7.70;;
13485;SDS011;6815;59.336;17.998;2023-01-08T20:05:49;11.30;;;7.10;;
13485;SDS011;6815;59.336;17.998;2023-01-08T20:08:14;12.37;;;7.60;;
13485;SDS011;6815;59.336;17.998;2023-01-08T20:10:40;12.30;;;7.23;;
13485;SDS011;6815;59.336;17.998;2023-01-08T20:13:05;11.50;;;7.17;;
13485;SDS011;6815;59.336;17.998;2023-01-08T20:15:31;12.43;;;7.30;;
13485;SDS011;6815;59.336;17.998;2023-01-08T20:17:56;11.03;;;7.00;;
13485;SDS011;6815;59.336;17.998;2023-01-08T20:20:22;10.83;;;7.17;;
13485;SDS011;6815;59.336;17.998;2023-01-08T20:22:47;11.67;;;7.10;;
13485;SDS011;6815;59.336;17.998;2023-01-08T20:25:13;11.47;;;6.67;;
13485;SDS011;6815;59.336;17.998;2023-01-08T20:27:38;11.43;;;7.47;;
13485;SDS011;6815;59.336;17.998;2023-01-08T20:30:04;12.43;;;7.47;;
13485;SDS011;6815;59.336;17.998;2023-01-08T20:32:32;11.07;;;7.10;;
13485;SDS011;6815;59.336;17.998;2023-01-08T20:34:59;10.47;;;7.67;;
13485;SDS011;6815;59.336;17.998;2023-01-08T20:37:24;10.07;;;6.60;;
13485;SDS011;6815;59.336;17.998;2023-01-08T20:39:50;11.27;;;7.03;;
13485;SDS011;6815;59.336;17.998;2023-01-08T20:42:16;9.00;;;6.53;;
13485;SDS011;6815;59.336;17.998;2023-01-08T20:44:42;10.20;;;7.13;;
13485;SDS011;6815;59.336;17.998;2023-01-08T20:47:09;13.43;;;7.40;;
13485;SDS011;6815;59.336;17.998;2023-01-08T20:49:35;10.43;;;7.57;;
13485;SDS011;6815;59.336;17.998;2023-01-08T20:52:00;12.67;;;7.47;;
13485;SDS011;6815;59.336;17.998;2023-01-08T20:54:26;10.43;;;7.73;;
13485;SDS011;6815;59.336;17.998;2023-01-08T20:56:56;13.17;;;7.63;;
13485;SDS011;6815;59.336;17.998;2023-01-08T20:59:22;12.80;;;8.10;;
13485;SDS011;6815;59.336;17.998;2023-01-08T21:01:48;11.50;;;7.23;;
13485;SDS011;6815;59.336;17.998;2023-01-08T21:04:14;11.10;;;7.17;;
13485;SDS011;6815;59.336;17.998;2023-01-08T21:06:40;11.37;;;7.63;;
13485;SDS011;6815;59.336;17.998;2023-01-08T21:09:06;11.93;;;7.97;;
13485;SDS011;6815;59.336;17.998;2023-01-08T21:11:35;10.90;;;7.77;;
13485;SDS011;6815;59.336;17.998;2023-01-08T21:14:02;11.37;;;7.27;;
13485;SDS011;6815;59.336;17.998;2023-01-08T21:16:29;12.30;;;7.93;;
13485;SDS011;6815;59.336;17.998;2023-01-08T21:18:56;11.83;;;7.47;;
13485;SDS011;6815;59.336;17.998;2023-01-08T21:21:25;13.43;;;7.23;;
13485;SDS011;6815;59.336;17.998;2023-01-08T21:23:53;13.77;;;8.10;;
13485;SDS011;6815;59.336;17.998;2023-01-08T21:26:20;10.73;;;7.63;;
13485;SDS011;6815;59.336;17.998;2023-01-08T21:28:46;11.43;;;7.50;;
13485;SDS011;6815;59.336;17.998;2023-01-08T21:31:23;9.50;;;6.57;;
13485;SDS011;6815;59.336;17.998;2023-01-08T21:33:53;11.87;;;7.47;;
13485;SDS011;6815;59.336;17.998;2023-01-08T21:36:21;12.07;;;7.37;;
13485;SDS011;6815;59.336;17.998;2023-01-08T21:38:48;9.73;;;6.97;;
13485;SDS011;6815;59.336;17.998;2023-01-08T21:41:17;11.07;;;6.97;;
13485;SDS011;6815;59.336;17.998;2023-01-08T21:44:05;9.80;;;7.13;;
13485;SDS011;6815;59.336;17.998;2023-01-08T21:46:54;9.57;;;7.10;;
13485;SDS011;6815;59.336;17.998;2023-01-08T21:49:22;11.70;;;7.67;;
13485;SDS011;6815;59.336;17.998;2023-01-08T21:51:47;11.60;;;7.57;;
13485;SDS011;6815;59.336;17.998;2023-01-08T21:54:33;12.80;;;7.90;;
13485;SDS011;6815;59.336;17.998;2023-01-08T21:56:58;14.30;;;8.17;;
13485;SDS011;6815;59.336;17.998;2023-01-08T21:59:24;12.13;;;7.30;;
13485;SDS011;6815;59.336;17.998;2023-01-08T22:01:49;12.60;;;8.37;;
13485;SDS011;6815;59.336;17.998;2023-01-08T22:04:15;12.07;;;7.93;;
13485;SDS011;6815;59.336;17.998;2023-01-08T22:06:40;13.43;;;8.87;;
13485;SDS011;6815;59.336;17.998;2023-01-08T22:09:07;12.73;;;8.43;;
13485;SDS011;6815;59.336;17.998;2023-01-08T22:11:32;12.90;;;7.97;;
13485;SDS011;6815;59.336;17.998;2023-01-08T22:13:58;11.97;;;7.97;;
13485;SDS011;6815;59.336;17.998;2023-01-08T22:16:24;12.83;;;8.10;;
13485;SDS011;6815;59.336;17.998;2023-01-08T22:18:50;10.57;;;7.30;;
13485;SDS011;6815;59.336;17.998;2023-01-08T22:21:15;11.00;;;7.63;;
13485;SDS011;6815;59.336;17.998;2023-01-08T22:23:41;12.77;;;8.20;;
13485;SDS011;6815;59.336;17.998;2023-01-08T22:26:07;12.40;;;8.13;;
13485;SDS011;6815;59.336;17.998;2023-01-08T22:28:36;12.07;;;7.80;;
13485;SDS011;6815;59.336;17.998;2023-01-08T22:31:06;11.07;;;7.60;;
13485;SDS011;6815;59.336;17.998;2023-01-08T22:33:33;10.77;;;7.50;;
13485;SDS011;6815;59.336;17.998;2023-01-08T22:36:00;12.40;;;7.80;;
13485;SDS011;6815;59.336;17.998;2023-01-08T22:38:26;10.93;;;7.40;;
13485;SDS011;6815;59.336;17.998;2023-01-08T22:40:52;10.93;;;6.97;;
13485;SDS011;6815;59.336;17.998;2023-01-08T22:43:19;10.13;;;6.97;;
13485;SDS011;6815;59.336;17.998;2023-01-08T22:45:52;13.43;;;7.33;;
13485;SDS011;6815;59.336;17.998;2023-01-08T22:48:21;14.33;;;7.63;;
13485;SDS011;6815;59.336;17.998;2023-01-08T22:50:49;10.83;;;6.60;;
13485;SDS011;6815;59.336;17.998;2023-01-08T22:53:15;10.03;;;6.70;;
13485;SDS011;6815;59.336;17.998;2023-01-08T22:55:43;11.00;;;6.57;;
13485;SDS011;6815;59.336;17.998;2023-01-08T22:58:11;12.87;;;7.03;;
13485;SDS011;6815;59.336;17.998;2023-01-08T23:00:37;11.70;;;6.93;;
13485;SDS011;6815;59.336;17.998;2023-01-08T23:03:03;11.63;;;6.73;;
13485;SDS011;6815;59.336;17.998;2023-01-08T23:05:32;11.33;;;6.70;;
13485;SDS011;6815;59.336;17.998;2023-01-08T23:07:58;9.57;;;5.93;;
13485;SDS011;6815;59.336;17.998;2023-01-08T23:10:24;10.07;;;6.20;;
13485;SDS011;6815;59.336;17.998;2023-01-08T23:12:50;9.20;;;5.77;;
13485;SDS011;6815;59.336;17.998;2023-01-08T23:15:16;11.23;;;6.30;;
13485;SDS011;6815;59.336;17.998;2023-01-08T23:17:47;9.00;;;5.70;;
13485;SDS011;6815;59.336;17.998;2023-01-08T23:20:14;10.67;;;5.53;;
13485;SDS011;6815;59.336;17.998;2023-01-08T23:22:43;8.93;;;5.37;;
13485;SDS011;6815;59.336;17.998;2023-01-08T23:25:09;8.33;;;5.13;;
13485;SDS011;6815;59.336;17.998;2023-01-08T23:27:36;9.70;;;5.10;;
13485;SDS011;6815;59.336;17.998;2023-01-08T23:30:01;8.23;;;5.30;;
13485;SDS011;6815;59.336;17.998;2023-01-08T23:32:30;7.40;;;5.27;;
13485;SDS011;6815;59.336;17.998;2023-01-08T23:34:55;9.13;;;5.40;;
13485;SDS011;6815;59.336;17.998;2023-01-08T23:37:20;7.53;;;5.33;;
13485;SDS011;6815;59.336;17.998;2023-01-08T23:39:46;8.70;;;5.07;;
13485;SDS011;6815;59.336;17.998;2023-01-08T23:42:12;6.77;;;4.77;;
13485;SDS011;6815;59.336;17.998;2023-01-08T23:44:38;8.43;;;6.00;;
13485;SDS011;6815;59.336;17.998;2023-01-08T23:47:03;8.07;;;4.80;;
13485;SDS011;6815;59.336;17.998;2023-01-08T23:49:29;10.03;;;5.80;;
13485;SDS011;6815;59.336;17.998;2023-01-08T23:51:55;9.33;;;5.73;;
13485;SDS011;6815;59.336;17.998;2023-01-08T23:54:21;7.70;;;5.13;;
13485;SDS011;6815;59.336;17.998;2023-01-08T23:56:47;9.80;;;5.47;;
13485;SDS011;6815;59.336;17.998;2023-01-08T23:59:13;7.67;;;5.23;;
